createdAt,value
2019-06-27T00:00:11.315Z,102634.39
2019-06-27T00:02:40.496Z,102630.58
2019-06-27T00:05:09.714Z,102636.80
2019-06-27T00:07:39.148Z,102627.38
2019-06-27T00:10:09.394Z,102631.86
2019-06-27T00:12:40.410Z,102628.13
2019-06-27T00:15:09.937Z,102633.59
2019-06-27T00:17:38.977Z,102626.70
2019-06-27T00:20:08.269Z,102628.08
2019-06-27T00:22:40.874Z,102617.33
2019-06-27T00:25:08.411Z,102623.91
2019-06-27T00:27:37.547Z,102634.52
2019-06-27T00:30:07.221Z,102631.50
2019-06-27T00:32:36.328Z,102633.14
2019-06-27T00:35:06.105Z,102622.31
2019-06-27T00:37:35.209Z,102629.86
2019-06-27T00:40:04.958Z,102629.86
2019-06-27T00:42:34.024Z,102626.00
2019-06-27T00:45:03.268Z,102625.55
2019-06-27T00:47:32.701Z,102626.16
2019-06-27T00:50:01.846Z,102625.75
2019-06-27T00:52:31.039Z,102625.57
2019-06-27T00:55:00.171Z,102623.48
2019-06-27T00:57:29.364Z,102627.88
2019-06-27T00:59:58.559Z,102624.61
2019-06-27T01:02:27.675Z,102627.93
2019-06-27T01:04:56.903Z,102622.81
2019-06-27T01:07:26.104Z,102619.00
2019-06-27T01:09:55.283Z,102627.96
2019-06-27T01:12:24.446Z,102627.96
2019-06-27T01:14:53.588Z,102630.56
2019-06-27T01:17:22.810Z,102640.39
2019-06-27T01:19:52.000Z,102638.58
2019-06-27T01:22:21.119Z,102640.81
2019-06-27T01:24:51.044Z,102641.78
2019-06-27T01:27:29.509Z,102640.94
2019-06-27T01:29:53.359Z,102647.29
2019-06-27T01:32:22.549Z,102648.22
2019-06-27T01:34:51.771Z,102645.02
2019-06-27T01:37:21.310Z,102646.39
2019-06-27T01:39:50.635Z,102649.08
2019-06-27T01:42:19.734Z,102647.79
2019-06-27T01:44:56.348Z,102651.75
2019-06-27T01:47:36.081Z,102652.19
2019-06-27T01:50:05.657Z,102652.22
2019-06-27T01:52:57.242Z,102652.22
2019-06-27T01:55:40.643Z,102653.03
2019-06-27T01:58:12.359Z,102663.64
2019-06-27T02:00:43.830Z,102656.37
2019-06-27T02:03:19.233Z,102655.84
2019-06-27T02:05:50.712Z,102657.77
2019-06-27T02:08:26.556Z,102657.77
2019-06-27T02:11:28.031Z,102664.80
2019-06-27T02:13:59.531Z,102668.34
2019-06-27T02:16:44.512Z,102659.39
2019-06-27T02:19:13.644Z,102666.19
2019-06-27T02:21:43.919Z,102666.19
2019-06-27T02:24:13.152Z,102664.34
2019-06-27T02:26:42.260Z,102668.59
2019-06-27T02:29:13.967Z,102666.41
2019-06-27T02:31:43.167Z,102666.41
2019-06-27T02:34:14.725Z,102677.44
2019-06-27T02:36:43.919Z,102677.22
2019-06-27T02:39:13.040Z,102678.41
2019-06-27T02:41:42.225Z,102674.37
2019-06-27T02:44:11.421Z,102675.83
2019-06-27T02:46:40.622Z,102678.56
2019-06-27T02:49:09.838Z,102678.68
2019-06-27T02:51:40.305Z,102677.39
2019-06-27T02:54:09.539Z,102674.94
2019-06-27T02:56:38.692Z,102682.53
2019-06-27T02:59:07.886Z,102682.53
2019-06-27T03:01:37.079Z,102678.03
2019-06-27T03:04:07.436Z,102677.23
2019-06-27T03:06:37.733Z,102678.95
2019-06-27T03:09:07.367Z,102691.05
2019-06-27T03:11:37.058Z,102687.75
2019-06-27T03:14:06.270Z,102687.06
2019-06-27T03:16:35.384Z,102686.48
2019-06-27T03:19:04.521Z,102688.34
2019-06-27T03:21:34.557Z,102684.41
2019-06-27T03:24:04.141Z,102690.64
2019-06-27T03:26:33.394Z,102685.58
2019-06-27T03:29:02.585Z,102681.73
2019-06-27T03:31:32.592Z,102678.46
2019-06-27T03:34:02.214Z,102684.67
2019-06-27T03:36:31.462Z,102685.48
2019-06-27T03:39:01.155Z,102682.98
2019-06-27T03:41:35.503Z,102686.25
2019-06-27T03:44:10.184Z,102681.92
2019-06-27T03:46:40.251Z,102692.05
2019-06-27T03:49:10.129Z,102687.75
2019-06-27T03:51:41.069Z,102690.98
2019-06-27T03:54:10.532Z,102686.36
2019-06-27T03:57:54.833Z,102689.30
2019-06-27T04:00:30.769Z,102691.75
2019-06-27T04:03:00.113Z,102692.70
2019-06-27T04:05:29.307Z,102690.94
2019-06-27T04:07:58.523Z,102690.94
2019-06-27T04:10:27.740Z,102682.95
2019-06-27T04:12:58.237Z,102691.56
2019-06-27T04:15:29.275Z,102692.63
2019-06-27T04:17:59.842Z,102694.91
2019-06-27T04:20:29.058Z,102693.91
2019-06-27T04:22:58.262Z,102693.22
2019-06-27T04:25:27.743Z,102685.95
2019-06-27T04:28:00.165Z,102683.53
2019-06-27T04:30:29.323Z,102687.23
2019-06-27T04:32:58.466Z,102686.17
2019-06-27T04:35:27.649Z,102681.07
2019-06-27T04:37:56.985Z,102694.36
2019-06-27T04:40:26.489Z,102685.91
2019-06-27T04:42:55.740Z,102685.73
2019-06-27T04:45:25.132Z,102691.78
2019-06-27T04:47:57.319Z,102690.94
2019-06-27T04:50:26.371Z,102698.47
2019-06-27T04:52:59.768Z,102696.01
2019-06-27T04:55:28.890Z,102696.01
2019-06-27T04:57:57.943Z,102691.81
2019-06-27T05:00:30.011Z,102692.25
2019-06-27T05:02:59.740Z,102692.80
2019-06-27T05:05:28.854Z,102692.37
2019-06-27T05:07:58.048Z,102698.48
2019-06-27T05:10:27.624Z,102700.50
2019-06-27T05:12:57.513Z,102709.53
2019-06-27T05:15:27.331Z,102709.62
2019-06-27T05:17:56.540Z,102711.59
2019-06-27T05:20:25.668Z,102716.17
2019-06-27T05:22:54.780Z,102721.97
2019-06-27T05:25:23.907Z,102714.41
2019-06-27T05:27:53.109Z,102722.72
2019-06-27T05:30:22.354Z,102721.53
2019-06-27T05:32:51.554Z,102720.95
2019-06-27T05:35:20.784Z,102720.95
2019-06-27T05:37:50.018Z,102729.62
2019-06-27T05:40:19.494Z,102729.62
2019-06-27T05:42:48.685Z,102727.25
2019-06-27T05:45:18.617Z,102729.62
2019-06-27T05:47:47.687Z,102729.00
2019-06-27T05:50:17.292Z,102739.69
2019-06-27T05:52:46.479Z,102738.44
2019-06-27T05:55:15.689Z,102742.29
2019-06-27T05:57:44.730Z,102742.29
2019-06-27T06:00:27.385Z,102736.85
2019-06-27T06:02:45.408Z,102745.81
2019-06-27T06:05:14.636Z,102744.38
2019-06-27T06:07:43.747Z,102744.38
2019-06-27T06:10:13.066Z,102747.94
2019-06-27T06:12:42.262Z,102750.56
2019-06-27T06:15:11.550Z,102744.51
2019-06-27T06:17:40.745Z,102742.09
2019-06-27T06:20:10.678Z,102742.09
2019-06-27T06:22:39.864Z,102742.44
2019-06-27T06:25:09.074Z,102744.81
2019-06-27T06:27:38.961Z,102744.81
2019-06-27T06:30:08.651Z,102752.21
2019-06-27T06:32:37.858Z,102754.06
2019-06-27T06:35:07.634Z,102753.82
2019-06-27T06:37:36.834Z,102757.16
2019-06-27T06:40:06.051Z,102752.67
2019-06-27T06:42:35.240Z,102757.86
2019-06-27T06:45:04.684Z,102758.85
2019-06-27T06:47:33.873Z,102760.55
2019-06-27T06:50:03.086Z,102762.35
2019-06-27T06:52:32.281Z,102758.41
2019-06-27T06:55:01.464Z,102759.21
2019-06-27T06:57:31.043Z,102764.77
2019-06-27T07:00:00.088Z,102768.41
2019-06-27T07:02:29.243Z,102766.14
2019-06-27T07:04:58.478Z,102771.12
2019-06-27T07:07:27.680Z,102770.06
2019-06-27T07:09:56.899Z,102774.06
2019-06-27T07:12:26.018Z,102774.40
2019-06-27T07:14:55.209Z,102770.88
2019-06-27T07:17:24.408Z,102770.88
2019-06-27T07:19:57.316Z,102768.87
2019-06-27T07:22:24.505Z,102768.61
2019-06-27T07:24:53.697Z,102765.42
2019-06-27T07:27:22.885Z,102774.27
2019-06-27T07:29:52.134Z,102766.55
2019-06-27T07:32:21.359Z,102764.20
2019-06-27T07:34:50.524Z,102764.20
2019-06-27T07:37:19.720Z,102766.14
2019-06-27T07:39:48.929Z,102761.97
2019-06-27T07:42:18.132Z,102756.46
2019-06-27T07:44:47.277Z,102759.03
2019-06-27T07:47:16.468Z,102759.44
2019-06-27T07:49:45.837Z,102758.87
2019-06-27T07:52:15.024Z,102758.87
2019-06-27T07:54:44.235Z,102759.85
2019-06-27T07:57:13.402Z,102756.38
2019-06-27T07:59:42.545Z,102760.79
2019-06-27T08:02:11.742Z,102760.79
2019-06-27T08:04:40.784Z,102758.92
2019-06-27T08:07:09.978Z,102764.59
2019-06-27T08:09:39.152Z,102763.68
2019-06-27T08:12:08.607Z,102763.08
2019-06-27T08:14:37.787Z,102758.19
2019-06-27T08:17:06.993Z,102761.98
2019-06-27T08:19:36.016Z,102765.50
2019-06-27T08:22:05.245Z,102766.27
2019-06-27T08:24:34.677Z,102760.62
2019-06-27T08:27:03.998Z,102761.59
2019-06-27T08:29:33.206Z,102768.58
2019-06-27T08:32:02.409Z,102762.38
2019-06-27T08:34:31.607Z,102763.22
2019-06-27T08:37:00.716Z,102754.96
2019-06-27T08:39:29.879Z,102760.17
2019-06-27T08:41:58.968Z,102760.17
2019-06-27T08:44:28.112Z,102758.02
2019-06-27T08:46:57.287Z,102762.55
2019-06-27T08:49:26.336Z,102752.19
2019-06-27T08:51:55.524Z,102748.03
2019-06-27T08:54:24.573Z,102750.70
2019-06-27T08:56:53.638Z,102758.32
2019-06-27T08:59:22.833Z,102750.08
2019-06-27T09:02:07.279Z,102747.36
2019-06-27T09:04:22.871Z,102753.27
2019-06-27T09:06:51.999Z,102756.50
2019-06-27T09:09:21.191Z,102759.20
2019-06-27T09:11:50.410Z,102748.77
2019-06-27T09:14:19.517Z,102755.14
2019-06-27T09:16:48.821Z,102751.87
2019-06-27T09:19:17.983Z,102754.14
2019-06-27T09:21:47.178Z,102751.45
2019-06-27T09:24:16.383Z,102761.22
2019-06-27T09:26:45.614Z,102761.24
2019-06-27T09:29:14.758Z,102752.68
2019-06-27T09:31:44.092Z,102743.97
2019-06-27T09:34:13.316Z,102747.71
2019-06-27T09:36:42.491Z,102759.31
2019-06-27T09:39:11.710Z,102745.43
2019-06-27T09:41:40.893Z,102748.16
2019-06-27T09:44:10.113Z,102739.61
2019-06-27T09:46:39.311Z,102740.22
2019-06-27T09:49:08.494Z,102755.37
2019-06-27T09:51:37.647Z,102743.45
2019-06-27T09:54:06.825Z,102737.48
2019-06-27T09:56:36.048Z,102737.48
2019-06-27T09:59:05.158Z,102734.41
2019-06-27T10:01:34.351Z,102734.41
2019-06-27T10:04:03.546Z,102737.66
2019-06-27T10:06:32.757Z,102736.77
2019-06-27T10:09:01.882Z,102736.03
2019-06-27T10:11:31.219Z,102729.82
2019-06-27T10:14:00.282Z,102741.38
2019-06-27T10:16:29.383Z,102736.17
2019-06-27T10:18:58.558Z,102725.95
2019-06-27T10:21:27.871Z,102738.07
2019-06-27T10:23:57.084Z,102734.94
2019-06-27T10:26:26.336Z,102730.84
2019-06-27T10:28:55.553Z,102738.12
2019-06-27T10:31:24.679Z,102729.36
2019-06-27T10:33:53.922Z,102739.26
2019-06-27T10:36:23.137Z,102736.50
2019-06-27T10:38:52.271Z,102740.45
2019-06-27T10:41:21.464Z,102729.42
2019-06-27T10:43:50.655Z,102729.99
2019-06-27T10:46:19.867Z,102729.99
2019-06-27T10:48:48.969Z,102724.78
2019-06-27T10:51:18.214Z,102736.30
2019-06-27T10:53:47.347Z,102733.81
2019-06-27T10:56:16.510Z,102726.03
2019-06-27T10:58:45.563Z,102736.27
2019-06-27T11:01:14.759Z,102727.45
2019-06-27T11:03:44.053Z,102719.47
2019-06-27T11:06:13.186Z,102730.00
2019-06-27T11:08:42.282Z,102724.19
2019-06-27T11:11:11.497Z,102725.27
2019-06-27T11:13:40.754Z,102733.83
2019-06-27T11:16:10.055Z,102734.27
2019-06-27T11:18:39.278Z,102721.59
2019-06-27T11:21:08.497Z,102733.87
2019-06-27T11:23:37.593Z,102731.25
2019-06-27T11:26:09.396Z,102720.98
2019-06-27T11:28:37.745Z,102726.41
2019-06-27T11:31:06.852Z,102720.12
2019-06-27T11:33:36.023Z,102720.12
2019-06-27T11:36:05.209Z,102712.77
2019-06-27T11:38:34.316Z,102721.48
2019-06-27T11:41:03.439Z,102714.36
2019-06-27T11:43:32.565Z,102714.36
2019-06-27T11:46:01.758Z,102705.77
2019-06-27T11:48:30.908Z,102703.64
2019-06-27T11:50:59.951Z,102705.52
2019-06-27T11:53:29.149Z,102702.33
2019-06-27T11:55:58.542Z,102706.63
2019-06-27T11:58:27.746Z,102701.06
2019-06-27T12:00:56.963Z,102701.01
2019-06-27T12:03:26.035Z,102701.01
2019-06-27T12:05:55.144Z,102701.70
2019-06-27T12:08:24.192Z,102687.03
2019-06-27T12:10:53.385Z,102687.03
2019-06-27T12:13:22.553Z,102686.89
2019-06-27T12:15:51.842Z,102682.25
2019-06-27T12:18:20.979Z,102692.77
2019-06-27T12:20:50.183Z,102686.70
2019-06-27T12:23:19.291Z,102686.70
2019-06-27T12:25:48.501Z,102675.96
2019-06-27T12:28:17.620Z,102673.80
2019-06-27T12:30:46.765Z,102677.02
2019-06-27T12:33:16.049Z,102677.02
2019-06-27T12:35:45.179Z,102674.52
2019-06-27T12:38:14.771Z,102671.67
2019-06-27T12:40:43.885Z,102669.60
2019-06-27T12:43:14.503Z,102664.83
2019-06-27T12:45:43.970Z,102666.86
2019-06-27T12:48:13.095Z,102667.73
2019-06-27T12:50:42.215Z,102661.55
2019-06-27T12:53:11.405Z,102659.25
2019-06-27T12:55:40.556Z,102669.63
2019-06-27T12:58:09.682Z,102640.27
2019-06-27T13:00:39.190Z,102661.09
2019-06-27T13:03:08.376Z,102661.09
2019-06-27T13:05:37.505Z,102652.88
2019-06-27T13:08:06.634Z,102646.13
2019-06-27T13:10:36.250Z,102649.24
2019-06-27T13:13:05.957Z,102646.45
2019-06-27T13:15:35.286Z,102646.02
2019-06-27T13:18:04.773Z,102646.02
2019-06-27T13:20:34.419Z,102645.88
2019-06-27T13:23:03.538Z,102645.88
2019-06-27T13:25:34.375Z,102654.64
2019-06-27T13:28:03.746Z,102642.91
2019-06-27T13:30:33.271Z,102642.41
2019-06-27T13:33:02.397Z,102643.38
2019-06-27T13:35:31.774Z,102647.44
2019-06-27T13:38:00.834Z,102642.85
2019-06-27T13:40:30.118Z,102642.85
2019-06-27T13:42:59.347Z,102641.53
2019-06-27T13:45:28.561Z,102642.84
2019-06-27T13:47:57.823Z,102641.52
2019-06-27T13:50:27.002Z,102641.52
2019-06-27T13:52:56.199Z,102638.48
2019-06-27T13:55:25.389Z,102636.52
2019-06-27T13:57:57.480Z,102629.86
2019-06-27T14:00:35.216Z,102638.20
2019-06-27T14:03:16.751Z,102643.91
2019-06-27T14:05:46.031Z,102635.52
2019-06-27T14:08:15.318Z,102637.93
2019-06-27T14:10:44.522Z,102632.98
2019-06-27T14:13:13.707Z,102626.06
2019-06-27T14:15:42.832Z,102624.81
2019-06-27T14:18:12.012Z,102620.89
2019-06-27T14:20:41.324Z,102617.38
2019-06-27T14:23:19.024Z,102619.73
2019-06-27T14:26:03.016Z,102620.01
2019-06-27T14:28:37.570Z,102609.86
2019-06-27T14:31:06.816Z,102617.07
2019-06-27T14:33:36.052Z,102617.07
2019-06-27T14:36:06.373Z,102614.93
2019-06-27T14:38:35.713Z,102615.07
2019-06-27T14:41:05.177Z,102616.09
2019-06-27T14:43:37.865Z,102616.09
2019-06-27T14:46:05.886Z,102613.17
2019-06-27T14:48:34.959Z,102613.17
2019-06-27T14:51:17.149Z,102611.06
2019-06-27T14:54:12.854Z,102618.11
2019-06-27T14:57:08.409Z,102618.06
2019-06-27T14:59:37.553Z,102612.32
2019-06-27T15:02:07.476Z,102617.60
2019-06-27T15:04:36.693Z,102609.60
2019-06-27T15:07:06.060Z,102616.09
2019-06-27T15:09:35.285Z,102613.27
2019-06-27T15:12:04.475Z,102613.70
2019-06-27T15:14:33.691Z,102619.98
2019-06-27T15:17:06.554Z,102624.64
2019-06-27T15:19:46.167Z,102621.62
2019-06-27T15:22:15.344Z,102616.95
2019-06-27T15:24:44.622Z,102615.78
2019-06-27T15:27:14.454Z,102612.89
2019-06-27T15:29:43.718Z,102612.89
2019-06-27T15:32:12.889Z,102613.13
2019-06-27T15:34:44.716Z,102604.33
2019-06-27T15:37:13.789Z,102606.98
2019-06-27T15:39:43.028Z,102610.44
2019-06-27T15:42:12.160Z,102609.23
2019-06-27T15:44:41.374Z,102609.64
2019-06-27T15:47:10.629Z,102608.67
2019-06-27T15:49:39.757Z,102609.20
2019-06-27T15:52:08.950Z,102602.72
2019-06-27T15:54:38.091Z,102619.14
2019-06-27T15:57:07.195Z,102616.20
2019-06-27T15:59:36.311Z,102607.72
2019-06-27T16:02:05.507Z,102605.91
2019-06-27T16:04:34.873Z,102614.35
2019-06-27T16:07:04.058Z,102606.66
2019-06-27T16:09:33.372Z,102614.05
2019-06-27T16:12:02.660Z,102614.05
2019-06-27T16:14:31.956Z,102609.94
2019-06-27T16:17:04.356Z,102594.23
2019-06-27T16:19:33.710Z,102592.42
2019-06-27T16:22:03.106Z,102592.53
2019-06-27T16:24:32.347Z,102592.53
2019-06-27T16:27:01.817Z,102591.80
2019-06-27T16:29:31.109Z,102594.88
2019-06-27T16:32:00.446Z,102585.99
2019-06-27T16:34:29.737Z,102587.59
2019-06-27T16:36:59.923Z,102595.80
2019-06-27T16:39:29.986Z,102583.47
2019-06-27T16:41:59.159Z,102584.03
2019-06-27T16:44:28.309Z,102578.73
2019-06-27T16:46:57.501Z,102590.18
2019-06-27T16:49:26.626Z,102589.72
2019-06-27T16:51:55.851Z,102584.02
2019-06-27T16:54:25.007Z,102588.69
2019-06-27T16:56:54.258Z,102595.77
2019-06-27T16:59:23.359Z,102595.77
2019-06-27T17:01:52.674Z,102587.44
2019-06-27T17:04:22.058Z,102582.03
2019-06-27T17:06:51.224Z,102585.63
2019-06-27T17:09:20.537Z,102589.76
2019-06-27T17:11:49.728Z,102587.83
2019-06-27T17:14:20.034Z,102587.83
2019-06-27T17:16:49.493Z,102590.54
2019-06-27T17:19:18.727Z,102591.31
2019-06-27T17:21:47.927Z,102592.48
2019-06-27T17:24:17.134Z,102582.59
2019-06-27T17:26:46.381Z,102590.34
2019-06-27T17:29:15.550Z,102590.71
2019-06-27T17:31:44.727Z,102592.45
2019-06-27T17:34:14.371Z,102592.93
2019-06-27T17:36:56.644Z,102592.93
2019-06-27T17:39:14.454Z,102589.15
2019-06-27T17:41:43.578Z,102589.15
2019-06-27T17:44:12.728Z,102581.33
2019-06-27T17:46:41.924Z,102581.33
2019-06-27T17:49:11.115Z,102589.98
2019-06-27T17:51:40.387Z,102587.22
2019-06-27T17:54:09.652Z,102589.70
2019-06-27T17:56:47.654Z,102580.88
2019-06-27T17:59:20.539Z,102589.94
2019-06-27T18:01:51.678Z,102582.83
2019-06-27T18:04:20.823Z,102579.00
2019-06-27T18:06:50.222Z,102580.69
2019-06-27T18:09:19.567Z,102580.69
2019-06-27T18:11:48.793Z,102580.80
2019-06-27T18:14:17.984Z,102573.73
2019-06-27T18:19:26.452Z,102576.23
2019-06-27T18:21:55.709Z,102580.34
2019-06-27T18:24:24.890Z,102575.23
2019-06-27T18:26:54.203Z,102572.22
2019-06-27T18:29:23.379Z,102564.84
2019-06-27T18:31:52.584Z,102566.98
2019-06-27T18:34:21.695Z,102570.09
2019-06-27T18:36:50.906Z,102570.99
2019-06-27T18:39:20.495Z,102560.47
2019-06-27T18:41:49.703Z,102562.21
2019-06-27T18:44:18.891Z,102563.87
2019-06-27T18:46:48.084Z,102562.28
2019-06-27T18:49:17.190Z,102554.47
2019-06-27T18:51:46.322Z,102562.16
2019-06-27T18:54:15.494Z,102562.16
2019-06-27T18:56:44.703Z,102561.53
2019-06-27T18:59:13.840Z,102558.04
2019-06-27T19:01:43.041Z,102560.24
2019-06-27T19:04:15.869Z,102552.32
2019-06-27T19:06:45.245Z,102551.56
2019-06-27T19:09:14.417Z,102558.77
2019-06-27T19:11:43.628Z,102559.49
2019-06-27T19:14:12.737Z,102555.88
2019-06-27T19:16:41.939Z,102551.08
2019-06-27T19:19:13.506Z,102548.92
2019-06-27T19:21:49.894Z,102556.52
2019-06-27T19:24:36.483Z,102556.84
2019-06-27T19:27:05.697Z,102564.02
2019-06-27T19:29:34.733Z,102565.02
2019-06-27T19:32:03.944Z,102564.05
2019-06-27T19:34:33.096Z,102565.26
2019-06-27T19:37:02.125Z,102564.36
2019-06-27T19:39:31.168Z,102562.25
2019-06-27T19:42:00.808Z,102563.80
2019-06-27T19:44:30.040Z,102558.99
2019-06-27T19:46:59.160Z,102565.52
2019-06-27T19:49:28.347Z,102565.52
2019-06-27T19:51:57.527Z,102568.80
2019-06-27T19:54:26.707Z,102568.80
2019-06-27T19:56:55.841Z,102564.20
2019-06-27T19:59:25.420Z,102571.73
2019-06-27T20:01:54.740Z,102577.52
2019-06-27T20:04:23.856Z,102578.68
2019-06-27T20:06:53.047Z,102579.80
2019-06-27T20:09:22.243Z,102577.49
2019-06-27T20:11:51.427Z,102577.49
2019-06-27T20:14:20.608Z,102573.17
2019-06-27T20:16:49.797Z,102581.48
2019-06-27T20:19:21.188Z,102579.77
2019-06-27T20:21:50.387Z,102579.77
2019-06-27T20:24:21.773Z,102581.96
2019-06-27T20:26:50.446Z,102584.92
2019-06-27T20:29:19.630Z,102584.92
2019-06-27T20:31:48.824Z,102590.38
2019-06-27T20:34:18.026Z,102589.53
2019-06-27T20:36:47.245Z,102589.53
2019-06-27T20:39:16.357Z,102587.08
2019-06-27T20:41:45.482Z,102587.08
2019-06-27T20:44:14.670Z,102592.47
2019-06-27T20:46:43.705Z,102585.66
2019-06-27T20:49:12.905Z,102583.45
2019-06-27T20:51:42.348Z,102591.58
2019-06-27T20:54:12.519Z,102587.44
2019-06-27T20:56:41.708Z,102595.17
2019-06-27T20:59:10.925Z,102587.62
2019-06-27T21:01:39.951Z,102588.82
2019-06-27T21:04:09.169Z,102585.98
2019-06-27T21:06:38.245Z,102589.54
2019-06-27T21:09:07.455Z,102592.64
2019-06-27T21:11:36.708Z,102590.61
2019-06-27T21:14:05.965Z,102588.11
2019-06-27T21:16:35.151Z,102590.55
2019-06-27T21:19:04.270Z,102589.83
2019-06-27T21:21:33.649Z,102593.58
2019-06-27T21:24:02.849Z,102593.58
2019-06-27T21:26:31.982Z,102588.70
2019-06-27T21:29:01.512Z,102588.70
2019-06-27T21:31:30.662Z,102597.92
2019-06-27T21:33:59.855Z,102591.75
2019-06-27T21:36:29.064Z,102593.36
2019-06-27T21:39:07.692Z,102601.78
2019-06-27T21:41:29.094Z,102601.78
2019-06-27T21:43:58.161Z,102590.24
2019-06-27T21:46:27.371Z,102592.23
2019-06-27T21:48:56.601Z,102589.06
2019-06-27T21:51:25.746Z,102582.06
2019-06-27T21:53:54.947Z,102590.94
2019-06-27T21:56:24.055Z,102583.75
2019-06-27T21:58:53.197Z,102583.98
2019-06-27T22:01:22.584Z,102581.16
2019-06-27T22:03:51.857Z,102581.16
2019-06-27T22:06:21.059Z,102589.20
2019-06-27T22:08:50.275Z,102587.06
2019-06-27T22:11:19.479Z,102587.62
2019-06-27T22:13:48.665Z,102590.16
2019-06-27T22:16:17.880Z,102587.06
2019-06-27T22:18:47.496Z,102589.63
2019-06-27T22:21:16.742Z,102583.41
2019-06-27T22:23:45.991Z,102583.01
2019-06-27T22:26:15.229Z,102593.12
2019-06-27T22:28:44.438Z,102586.16
2019-06-27T22:31:13.660Z,102584.12
2019-06-27T22:33:42.847Z,102576.08
2019-06-27T22:36:12.098Z,102576.73
2019-06-27T22:38:59.426Z,102572.66
2019-06-27T22:41:46.215Z,102571.51
2019-06-27T22:44:34.072Z,102570.28
2019-06-27T22:47:25.667Z,102564.70
2019-06-27T22:49:54.030Z,102563.80
2019-06-27T22:52:37.754Z,102570.73
2019-06-27T22:55:10.044Z,102567.38
2019-06-27T22:57:39.248Z,102562.32
2019-06-27T23:00:08.873Z,102564.23
2019-06-27T23:02:38.062Z,102564.23
2019-06-27T23:05:07.303Z,102569.88
2019-06-27T23:07:36.365Z,102563.95
2019-06-27T23:10:05.658Z,102562.59
2019-06-27T23:12:34.892Z,102562.59
2019-06-27T23:15:04.161Z,102562.85
2019-06-27T23:17:33.375Z,102562.85
2019-06-27T23:20:02.571Z,102558.55
2019-06-27T23:22:31.710Z,102560.35
2019-06-27T23:25:00.887Z,102560.35
2019-06-27T23:27:29.989Z,102559.37
2019-06-27T23:29:59.039Z,102559.37
2019-06-27T23:32:28.240Z,102559.69
2019-06-27T23:34:57.357Z,102563.92
2019-06-27T23:37:26.490Z,102562.80
2019-06-27T23:39:55.704Z,102562.80
2019-06-27T23:42:24.737Z,102557.26
2019-06-27T23:44:54.755Z,102570.50
2019-06-27T23:47:23.876Z,102568.65
2019-06-27T23:49:52.904Z,102565.27
2019-06-27T23:52:22.145Z,102566.84
2019-06-27T23:54:51.188Z,102569.91
2019-06-27T23:57:20.620Z,102567.00
2019-06-27T23:59:49.731Z,102555.80
